createdAt,value
2016-08-26T00:00:22.540Z,0.00
2016-08-26T00:01:22.920Z,0.00
2016-08-26T00:02:23.254Z,0.00
2016-08-26T00:03:24.812Z,0.00
2016-08-26T00:04:24.402Z,0.00
2016-08-26T00:05:24.900Z,0.00
2016-08-26T00:06:25.531Z,0.00
2016-08-26T00:07:25.885Z,0.00
2016-08-26T00:08:26.688Z,0.00
2016-08-26T00:09:27.070Z,0.00
2016-08-26T00:10:35.796Z,0.00
2016-08-26T00:11:27.864Z,0.00
2016-08-26T00:12:28.381Z,0.00
2016-08-26T00:13:28.715Z,0.00
2016-08-26T00:14:29.522Z,0.00
2016-08-26T00:15:29.872Z,0.00
2016-08-26T00:16:30.655Z,0.00
2016-08-26T00:17:30.864Z,0.00
2016-08-26T00:18:31.352Z,0.00
2016-08-26T00:19:32.163Z,0.00
2016-08-26T00:20:32.499Z,0.00
2016-08-26T00:21:32.722Z,0.00
2016-08-26T00:22:33.363Z,0.00
2016-08-26T00:23:33.845Z,0.00
2016-08-26T00:24:34.645Z,0.00
2016-08-26T00:25:34.874Z,0.00
2016-08-26T00:26:35.523Z,0.00
2016-08-26T00:27:35.856Z,0.00
2016-08-26T00:28:36.374Z,0.00
2016-08-26T00:29:37.000Z,0.00
2016-08-26T00:30:37.193Z,0.00
2016-08-26T00:31:37.881Z,0.00
2016-08-26T00:32:38.350Z,0.00
2016-08-26T00:33:38.841Z,0.00
2016-08-26T00:34:39.477Z,0.00
2016-08-26T00:35:39.978Z,0.00
2016-08-26T00:36:40.346Z,0.00
2016-08-26T00:37:40.678Z,0.00
2016-08-26T00:38:42.072Z,0.00
2016-08-26T00:39:41.685Z,0.00
2016-08-26T00:40:42.486Z,0.00
2016-08-26T00:41:42.828Z,0.00
2016-08-26T00:42:43.461Z,0.00
2016-08-26T00:43:43.659Z,0.00
2016-08-26T00:44:44.322Z,0.00
2016-08-26T00:45:44.805Z,0.00
2016-08-26T00:46:45.454Z,0.00
2016-08-26T00:47:45.799Z,0.00
2016-08-26T00:48:46.454Z,0.00
2016-08-26T00:49:46.650Z,0.00
2016-08-26T00:50:47.292Z,0.00
2016-08-26T00:51:47.986Z,0.00
2016-08-26T00:52:48.140Z,0.00
2016-08-26T00:53:48.803Z,0.00
2016-08-26T00:54:49.294Z,0.00
2016-08-26T00:55:50.080Z,0.00
2016-08-26T00:56:50.283Z,0.00
2016-08-26T00:57:50.656Z,0.00
2016-08-26T00:58:51.125Z,0.00
2016-08-26T00:59:51.660Z,0.00
2016-08-26T01:00:52.433Z,0.00
2016-08-26T01:01:52.943Z,0.00
2016-08-26T01:02:53.164Z,0.00
2016-08-26T01:03:53.778Z,0.00
2016-08-26T01:04:54.309Z,0.00
2016-08-26T01:05:55.090Z,0.00
2016-08-26T01:06:55.296Z,0.00
2016-08-26T01:07:55.786Z,0.00
2016-08-26T01:08:56.165Z,0.00
2016-08-26T01:09:56.925Z,0.00
2016-08-26T01:10:57.164Z,0.00
2016-08-26T01:11:57.781Z,0.00
2016-08-26T01:12:58.425Z,0.00
2016-08-26T01:13:58.922Z,0.00
2016-08-26T01:14:59.273Z,0.00
2016-08-26T01:15:59.915Z,0.00
2016-08-26T01:17:00.419Z,0.00
2016-08-26T01:18:00.781Z,0.00
2016-08-26T01:19:01.439Z,0.00
2016-08-26T01:20:01.760Z,0.00
2016-08-26T01:21:02.276Z,0.00
2016-08-26T01:22:02.616Z,0.00
2016-08-26T01:23:03.155Z,0.00
2016-08-26T01:24:04.040Z,0.00
2016-08-26T01:25:04.559Z,0.00
2016-08-26T01:26:04.739Z,0.00
2016-08-26T01:27:05.255Z,0.00
2016-08-26T01:28:05.601Z,0.00
2016-08-26T01:29:06.397Z,0.00
2016-08-26T01:30:06.723Z,0.00
2016-08-26T01:31:07.369Z,0.00
2016-08-26T01:32:07.721Z,0.00
2016-08-26T01:33:08.223Z,0.00
2016-08-26T01:34:08.722Z,0.00
2016-08-26T01:35:09.375Z,0.00
2016-08-26T01:36:09.724Z,0.00
2016-08-26T01:37:10.218Z,0.00
2016-08-26T01:38:10.868Z,0.00
2016-08-26T01:39:11.225Z,0.00
2016-08-26T01:40:11.722Z,0.00
2016-08-26T01:41:12.070Z,0.00
2016-08-26T01:42:13.041Z,0.00
2016-08-26T01:43:13.228Z,0.00
2016-08-26T01:44:13.731Z,0.00
2016-08-26T01:45:14.358Z,0.00
2016-08-26T01:46:14.865Z,0.00
2016-08-26T01:47:15.061Z,0.00
2016-08-26T01:48:16.005Z,0.00
2016-08-26T01:49:16.084Z,0.00
2016-08-26T01:50:16.852Z,0.00
2016-08-26T01:51:17.346Z,0.00
2016-08-26T01:52:17.693Z,0.00
2016-08-26T01:53:18.497Z,0.00
2016-08-26T01:54:18.692Z,0.00
2016-08-26T01:55:19.035Z,0.00
2016-08-26T01:56:21.829Z,0.00
2016-08-26T01:57:20.330Z,0.00
2016-08-26T01:58:20.683Z,0.00
2016-08-26T01:59:21.325Z,0.00
2016-08-26T02:00:21.523Z,0.00
2016-08-26T02:01:22.170Z,0.00
2016-08-26T02:02:22.674Z,0.00
2016-08-26T02:03:23.338Z,0.00
2016-08-26T02:04:23.846Z,0.00
2016-08-26T02:05:24.308Z,0.00
2016-08-26T02:06:24.507Z,0.00
2016-08-26T02:07:25.156Z,0.00
2016-08-26T02:08:25.977Z,0.00
2016-08-26T02:09:26.451Z,0.00
2016-08-26T02:10:26.798Z,0.00
2016-08-26T02:11:27.154Z,0.00
2016-08-26T02:12:28.091Z,0.00
2016-08-26T02:13:28.143Z,0.00
2016-08-26T02:14:28.495Z,0.00
2016-08-26T02:15:29.311Z,0.00
2016-08-26T02:16:29.939Z,0.00
2016-08-26T02:17:30.154Z,0.00
2016-08-26T02:18:30.676Z,0.00
2016-08-26T02:19:31.287Z,0.00
2016-08-26T02:20:31.641Z,0.00
2016-08-26T02:21:32.158Z,0.00
2016-08-26T02:22:32.659Z,0.00
2016-08-26T02:23:33.145Z,0.00
2016-08-26T02:24:33.670Z,0.00
2016-08-26T02:25:33.997Z,0.00
2016-08-26T02:26:34.795Z,0.00
2016-08-26T02:27:35.148Z,0.00
2016-08-26T02:28:35.494Z,0.00
2016-08-26T02:29:36.119Z,0.00
2016-08-26T02:30:36.475Z,0.00
2016-08-26T02:31:37.421Z,0.00
2016-08-26T02:32:37.783Z,0.00
2016-08-26T02:33:38.131Z,0.00
2016-08-26T02:34:41.802Z,0.00
2016-08-26T02:35:38.969Z,0.00
2016-08-26T02:36:39.777Z,0.00
2016-08-26T02:37:39.961Z,0.00
2016-08-26T02:38:40.906Z,0.00
2016-08-26T02:39:41.258Z,0.00
2016-08-26T02:40:41.456Z,0.00
2016-08-26T02:41:41.991Z,0.00
2016-08-26T02:42:42.904Z,0.00
2016-08-26T02:43:43.290Z,0.00
2016-08-26T02:44:44.218Z,0.00
2016-08-26T02:45:44.114Z,0.00
2016-08-26T02:46:44.610Z,0.00
2016-08-26T02:47:44.972Z,0.00
2016-08-26T02:48:45.749Z,0.00
2016-08-26T02:49:46.399Z,0.00
2016-08-26T02:50:46.476Z,0.00
2016-08-26T02:51:46.963Z,0.00
2016-08-26T02:52:47.750Z,0.00
2016-08-26T02:53:48.100Z,0.00
2016-08-26T02:54:48.749Z,0.00
2016-08-26T02:55:49.268Z,0.00
2016-08-26T02:56:49.619Z,0.00
2016-08-26T02:57:50.246Z,0.00
2016-08-26T02:58:50.456Z,0.00
2016-08-26T02:59:51.092Z,0.00
2016-08-26T03:00:51.894Z,0.00
2016-08-26T03:01:52.398Z,0.00
2016-08-26T03:02:52.741Z,0.00
2016-08-26T03:03:53.095Z,0.00
2016-08-26T03:04:53.588Z,0.00
2016-08-26T03:05:53.948Z,0.00
2016-08-26T03:06:54.589Z,0.00
2016-08-26T03:07:55.080Z,0.00
2016-08-26T03:08:55.453Z,0.00
2016-08-26T03:09:55.963Z,0.00
2016-08-26T03:10:56.580Z,0.00
2016-08-26T03:11:57.237Z,0.00
2016-08-26T03:12:57.579Z,0.00
2016-08-26T03:13:58.098Z,0.00
2016-08-26T03:14:58.573Z,0.00
2016-08-26T03:15:59.092Z,0.00
2016-08-26T03:16:59.557Z,0.00
2016-08-26T03:18:00.360Z,0.00
2016-08-26T03:19:00.413Z,0.00
2016-08-26T03:20:00.921Z,0.00
2016-08-26T03:21:01.702Z,0.00
2016-08-26T03:22:02.197Z,0.00
2016-08-26T03:23:02.576Z,0.00
2016-08-26T03:24:03.065Z,0.00
2016-08-26T03:25:03.547Z,0.00
2016-08-26T03:26:04.197Z,0.00
2016-08-26T03:27:04.548Z,0.00
2016-08-26T03:28:05.073Z,0.00
2016-08-26T03:29:05.577Z,0.00
2016-08-26T03:30:06.354Z,0.00
2016-08-26T03:31:06.722Z,0.00
2016-08-26T03:32:06.899Z,0.00
2016-08-26T03:33:07.561Z,0.00
2016-08-26T03:34:08.040Z,0.00
2016-08-26T03:35:08.581Z,0.00
2016-08-26T03:36:09.065Z,0.00
2016-08-26T03:37:09.409Z,0.00
2016-08-26T03:38:10.033Z,0.00
2016-08-26T03:39:10.385Z,0.00
2016-08-26T03:40:11.181Z,0.00
2016-08-26T03:41:11.535Z,0.00
2016-08-26T03:42:11.880Z,0.00
2016-08-26T03:43:12.673Z,0.00
2016-08-26T03:44:13.192Z,0.00
2016-08-26T03:45:13.530Z,0.00
2016-08-26T03:46:14.182Z,0.00
2016-08-26T03:47:14.696Z,0.00
2016-08-26T03:48:15.333Z,0.00
2016-08-26T03:49:15.686Z,0.00
2016-08-26T03:50:16.021Z,0.00
2016-08-26T03:51:16.524Z,0.00
2016-08-26T03:52:17.020Z,0.00
2016-08-26T03:53:17.515Z,0.00
2016-08-26T03:54:18.037Z,0.00
2016-08-26T03:55:18.510Z,0.00
2016-08-26T03:56:19.163Z,0.00
2016-08-26T03:57:19.490Z,0.00
2016-08-26T03:58:20.149Z,0.00
2016-08-26T03:59:20.935Z,0.00
2016-08-26T04:00:20.998Z,0.00
2016-08-26T04:01:21.655Z,0.00
2016-08-26T04:02:21.995Z,0.00
2016-08-26T04:03:22.929Z,0.00
2016-08-26T04:04:22.981Z,0.00
2016-08-26T04:05:23.660Z,0.00
2016-08-26T04:06:24.012Z,0.00
2016-08-26T04:07:24.789Z,0.00
2016-08-26T04:08:25.138Z,0.00
2016-08-26T04:09:25.618Z,0.00
2016-08-26T04:10:26.140Z,0.00
2016-08-26T04:11:26.501Z,0.00
2016-08-26T04:12:26.986Z,0.00
2016-08-26T04:13:27.468Z,0.00
2016-08-26T04:14:27.966Z,1.00
2016-08-26T04:15:28.600Z,0.00
2016-08-26T04:16:29.247Z,0.00
2016-08-26T04:17:29.603Z,0.00
2016-08-26T04:18:29.876Z,0.00
2016-08-26T04:19:30.590Z,0.00
2016-08-26T04:20:31.988Z,0.00
2016-08-26T04:21:31.584Z,0.00
2016-08-26T04:22:31.944Z,0.00
2016-08-26T04:23:32.451Z,0.00
2016-08-26T04:24:32.817Z,0.00
2016-08-26T04:25:33.442Z,0.00
2016-08-26T04:26:33.946Z,0.00
2016-08-26T04:27:34.426Z,0.00
2016-08-26T04:28:34.971Z,0.00
2016-08-26T04:29:35.720Z,0.00
2016-08-26T04:30:35.919Z,0.00
2016-08-26T04:31:36.612Z,0.00
2016-08-26T04:32:37.062Z,0.00
2016-08-26T04:33:37.415Z,0.00
2016-08-26T04:34:37.906Z,1.00
2016-08-26T04:35:38.722Z,1.00
2016-08-26T04:36:38.906Z,1.00
2016-08-26T04:37:39.570Z,1.00
2016-08-26T04:38:39.915Z,1.00
2016-08-26T04:39:40.416Z,1.00
2016-08-26T04:40:41.048Z,1.00
2016-08-26T04:41:41.551Z,1.00
2016-08-26T04:42:41.922Z,1.00
2016-08-26T04:43:42.246Z,1.00
2016-08-26T04:44:42.783Z,1.00
2016-08-26T04:45:43.402Z,1.00
2016-08-26T04:46:44.063Z,1.00
2016-08-26T04:47:44.407Z,1.00
2016-08-26T04:48:45.036Z,9.00
2016-08-26T04:49:45.387Z,1.00
2016-08-26T04:50:45.732Z,1.00
2016-08-26T04:51:46.394Z,1.00
2016-08-26T04:52:47.024Z,2.00
2016-08-26T04:53:47.381Z,2.00
2016-08-26T04:54:47.731Z,2.00
2016-08-26T04:55:48.570Z,2.00
2016-08-26T04:56:48.729Z,2.00
2016-08-26T04:57:49.388Z,2.00
2016-08-26T04:58:49.727Z,2.00
2016-08-26T04:59:50.375Z,2.00
2016-08-26T05:00:50.712Z,2.00
2016-08-26T05:01:51.508Z,2.00
2016-08-26T05:02:52.168Z,2.00
2016-08-26T05:03:52.407Z,2.00
2016-08-26T05:04:53.025Z,2.00
2016-08-26T05:05:53.688Z,2.00
2016-08-26T05:06:54.012Z,2.00
2016-08-26T05:07:54.360Z,2.00
2016-08-26T05:08:54.995Z,3.00
2016-08-26T05:09:55.192Z,3.00
2016-08-26T05:10:55.845Z,3.00
2016-08-26T05:11:56.341Z,3.00
2016-08-26T05:12:57.136Z,3.00
2016-08-26T05:13:57.482Z,3.00
2016-08-26T05:14:57.998Z,3.00
2016-08-26T05:15:58.343Z,3.00
2016-08-26T05:16:58.861Z,3.00
2016-08-26T05:17:59.641Z,3.00
2016-08-26T05:18:59.726Z,3.00
2016-08-26T05:20:00.634Z,3.00
2016-08-26T05:21:01.025Z,3.00
2016-08-26T05:22:01.338Z,3.00
2016-08-26T05:23:01.853Z,3.00
2016-08-26T05:24:02.334Z,3.00
2016-08-26T05:25:03.008Z,4.00
2016-08-26T05:26:03.624Z,4.00
2016-08-26T05:27:04.014Z,4.00
2016-08-26T05:28:04.796Z,4.00
2016-08-26T05:29:04.700Z,4.00
2016-08-26T05:30:05.630Z,4.00
2016-08-26T05:31:05.818Z,4.00
2016-08-26T05:32:06.620Z,4.00
2016-08-26T05:33:06.709Z,4.00
2016-08-26T05:34:07.183Z,4.00
2016-08-26T05:35:07.969Z,4.00
2016-08-26T05:36:08.460Z,9.00
2016-08-26T05:37:08.957Z,4.00
2016-08-26T05:38:09.312Z,4.00
2016-08-26T05:39:09.667Z,4.00
2016-08-26T05:40:10.301Z,5.00
2016-08-26T05:41:10.818Z,5.00
2016-08-26T05:42:11.329Z,5.00
2016-08-26T05:43:11.653Z,29.00
2016-08-26T05:44:12.297Z,59.00
2016-08-26T05:45:13.092Z,69.00
2016-08-26T05:46:13.445Z,64.00
2016-08-26T05:47:13.660Z,65.00
2016-08-26T05:48:14.589Z,65.00
2016-08-26T05:49:14.787Z,66.00
2016-08-26T05:50:15.593Z,67.00
2016-08-26T05:51:15.943Z,69.00
2016-08-26T05:52:16.585Z,68.00
2016-08-26T05:53:16.792Z,69.00
2016-08-26T05:54:17.448Z,69.00
2016-08-26T05:55:17.692Z,79.00
2016-08-26T05:56:19.951Z,71.00
2016-08-26T05:57:18.644Z,72.00
2016-08-26T05:58:19.586Z,72.00
2016-08-26T05:59:19.620Z,73.00
2016-08-26T06:00:20.582Z,74.00
2016-08-26T06:01:20.936Z,74.00
2016-08-26T06:02:21.123Z,75.00
2016-08-26T06:03:21.762Z,75.00
2016-08-26T06:04:22.263Z,76.00
2016-08-26T06:05:22.907Z,76.00
2016-08-26T06:06:23.404Z,77.00
2016-08-26T06:07:23.898Z,77.00
2016-08-26T06:08:24.270Z,78.00
2016-08-26T06:09:25.045Z,79.00
2016-08-26T06:10:25.273Z,79.00
2016-08-26T06:11:25.912Z,79.00
2016-08-26T06:12:26.252Z,89.00
2016-08-26T06:13:26.736Z,80.00
2016-08-26T06:14:27.234Z,81.00
2016-08-26T06:15:27.585Z,81.00
2016-08-26T06:16:28.235Z,81.00
2016-08-26T06:17:28.779Z,82.00
2016-08-26T06:18:29.216Z,82.00
2016-08-26T06:19:29.861Z,83.00
2016-08-26T06:20:30.361Z,83.00
2016-08-26T06:21:30.600Z,83.00
2016-08-26T06:22:31.070Z,84.00
2016-08-26T06:23:31.706Z,84.00
2016-08-26T06:24:32.230Z,85.00
2016-08-26T06:25:32.853Z,85.00
2016-08-26T06:26:33.204Z,85.00
2016-08-26T06:27:33.719Z,85.00
2016-08-26T06:28:34.057Z,86.00
2016-08-26T06:29:34.857Z,86.00
2016-08-26T06:30:35.409Z,86.00
2016-08-26T06:31:35.712Z,86.00
2016-08-26T06:32:36.222Z,87.00
2016-08-26T06:33:36.868Z,88.00
2016-08-26T06:34:37.205Z,88.00
2016-08-26T06:35:37.696Z,88.00
2016-08-26T06:36:38.356Z,89.00
2016-08-26T06:37:39.009Z,89.00
2016-08-26T06:38:39.208Z,89.00
2016-08-26T06:39:39.856Z,99.00
2016-08-26T06:40:41.590Z,90.00
2016-08-26T06:41:40.702Z,91.00
2016-08-26T06:42:41.182Z,91.00
2016-08-26T06:43:41.693Z,91.00
2016-08-26T06:44:42.052Z,91.00
2016-08-26T06:45:42.527Z,92.00
2016-08-26T06:46:43.024Z,92.00
2016-08-26T06:47:43.847Z,92.00
2016-08-26T06:48:44.185Z,92.00
2016-08-26T06:49:44.816Z,99.00
2016-08-26T06:50:45.215Z,92.00
2016-08-26T06:51:45.527Z,93.00
2016-08-26T06:52:46.016Z,93.00
2016-08-26T06:53:46.661Z,93.00
2016-08-26T06:54:47.161Z,93.00
2016-08-26T06:55:47.510Z,93.00
2016-08-26T06:56:48.211Z,93.00
2016-08-26T06:57:48.673Z,93.00
2016-08-26T06:58:49.148Z,94.00
2016-08-26T06:59:49.953Z,94.00
2016-08-26T07:00:50.152Z,94.00
2016-08-26T07:01:50.655Z,94.00
2016-08-26T07:02:51.140Z,94.00
2016-08-26T07:03:51.685Z,94.00
2016-08-26T07:04:52.151Z,94.00
2016-08-26T07:05:52.672Z,99.00
2016-08-26T07:06:53.298Z,94.00
2016-08-26T07:07:53.502Z,94.00
2016-08-26T07:08:54.163Z,94.00
2016-08-26T07:09:54.793Z,94.00
2016-08-26T07:10:55.327Z,94.00
2016-08-26T07:11:55.524Z,94.00
2016-08-26T07:12:56.453Z,94.00
2016-08-26T07:13:56.496Z,94.00
2016-08-26T07:14:57.439Z,94.00
2016-08-26T07:15:57.801Z,94.00
2016-08-26T07:16:57.995Z,94.00
2016-08-26T07:17:58.499Z,94.00
2016-08-26T07:18:59.180Z,94.00
2016-08-26T07:19:59.776Z,94.00
2016-08-26T07:21:00.277Z,95.00
2016-08-26T07:22:00.508Z,95.00
2016-08-26T07:23:01.152Z,94.00
2016-08-26T07:24:01.823Z,94.00
2016-08-26T07:25:02.313Z,94.00
2016-08-26T07:26:02.634Z,94.00
2016-08-26T07:27:03.273Z,94.00
2016-08-26T07:28:03.621Z,94.00
2016-08-26T07:29:04.440Z,94.00
2016-08-26T07:30:04.922Z,94.00
2016-08-26T07:31:05.145Z,94.00
2016-08-26T07:32:05.771Z,94.00
2016-08-26T07:33:06.315Z,94.00
2016-08-26T07:34:06.610Z,94.00
2016-08-26T07:35:06.960Z,94.00
2016-08-26T07:36:07.632Z,94.00
2016-08-26T07:37:07.963Z,93.00
2016-08-26T07:38:08.756Z,93.00
2016-08-26T07:39:09.254Z,93.00
2016-08-26T07:40:09.606Z,93.00
2016-08-26T07:41:09.957Z,93.00
2016-08-26T07:42:10.777Z,93.00
2016-08-26T07:43:11.259Z,99.00
2016-08-26T07:44:11.914Z,93.00
2016-08-26T07:45:12.109Z,93.00
2016-08-26T07:46:14.578Z,92.00
2016-08-26T07:47:13.135Z,92.00
2016-08-26T07:48:13.907Z,92.00
2016-08-26T07:49:14.124Z,92.00
2016-08-26T07:50:14.599Z,99.00
2016-08-26T07:51:15.115Z,92.00
2016-08-26T07:52:15.597Z,92.00
2016-08-26T07:53:16.246Z,99.00
2016-08-26T07:54:16.604Z,92.00
2016-08-26T07:55:17.102Z,92.00
2016-08-26T07:56:17.737Z,92.00
2016-08-26T07:57:18.106Z,92.00
2016-08-26T07:58:18.457Z,99.00
2016-08-26T07:59:19.254Z,91.00
2016-08-26T08:00:19.604Z,91.00
2016-08-26T08:01:20.079Z,91.00
2016-08-26T08:02:20.575Z,91.00
2016-08-26T08:03:21.222Z,91.00
2016-08-26T08:04:21.461Z,91.00
2016-08-26T08:05:21.916Z,91.00
2016-08-26T08:06:22.418Z,91.00
2016-08-26T08:07:23.214Z,90.00
2016-08-26T08:08:23.416Z,90.00
2016-08-26T08:09:24.065Z,90.00
2016-08-26T08:10:24.571Z,99.00
2016-08-26T08:11:25.206Z,90.00
2016-08-26T08:12:25.576Z,89.00
2016-08-26T08:13:26.369Z,89.00
2016-08-26T08:14:26.703Z,89.00
2016-08-26T08:15:26.902Z,88.00
2016-08-26T08:16:27.437Z,88.00
2016-08-26T08:17:28.200Z,89.00
2016-08-26T08:18:28.580Z,89.00
2016-08-26T08:19:29.053Z,89.00
2016-08-26T08:20:29.571Z,89.00
2016-08-26T08:21:30.257Z,89.00
2016-08-26T08:22:30.693Z,88.00
2016-08-26T08:23:30.897Z,88.00
2016-08-26T08:24:31.688Z,88.00
2016-08-26T08:25:32.338Z,88.00
2016-08-26T08:26:32.534Z,87.00
2016-08-26T08:27:33.043Z,87.00
2016-08-26T08:28:33.688Z,87.00
2016-08-26T08:29:34.189Z,87.00
2016-08-26T08:30:34.712Z,87.00
2016-08-26T08:31:34.873Z,87.00
2016-08-26T08:32:35.379Z,89.00
2016-08-26T08:33:36.022Z,86.00
2016-08-26T08:34:36.664Z,86.00
2016-08-26T08:35:36.894Z,85.00
2016-08-26T08:36:37.664Z,85.00
2016-08-26T08:37:37.876Z,85.00
2016-08-26T08:38:38.810Z,85.00
2016-08-26T08:39:39.010Z,85.00
2016-08-26T08:40:39.536Z,84.00
2016-08-26T08:41:40.219Z,84.00
2016-08-26T08:42:40.650Z,84.00
2016-08-26T08:43:41.476Z,89.00
2016-08-26T08:44:41.506Z,84.00
2016-08-26T08:45:41.999Z,83.00
2016-08-26T08:46:42.506Z,83.00
2016-08-26T08:47:43.150Z,83.00
2016-08-26T08:48:43.505Z,83.00
2016-08-26T08:49:43.898Z,83.00
2016-08-26T08:50:44.359Z,82.00
2016-08-26T08:51:45.007Z,82.00
2016-08-26T08:52:45.493Z,82.00
2016-08-26T08:53:45.846Z,82.00
2016-08-26T08:54:46.345Z,82.00
2016-08-26T08:55:47.010Z,82.00
2016-08-26T08:56:47.348Z,82.00
2016-08-26T08:57:48.015Z,81.00
2016-08-26T08:58:48.545Z,81.00
2016-08-26T08:59:48.985Z,81.00
2016-08-26T09:00:49.349Z,81.00
2016-08-26T09:01:49.995Z,81.00
2016-08-26T09:02:50.645Z,81.00
2016-08-26T09:03:51.149Z,81.00
2016-08-26T09:04:51.597Z,80.00
2016-08-26T09:05:51.825Z,80.00
2016-08-26T09:06:52.480Z,89.00
2016-08-26T09:07:53.124Z,89.00
2016-08-26T09:08:53.329Z,89.00
2016-08-26T09:09:53.984Z,89.00
2016-08-26T09:10:54.642Z,89.00
2016-08-26T09:11:55.015Z,89.00
2016-08-26T09:12:55.611Z,89.00
2016-08-26T09:13:56.259Z,89.00
2016-08-26T09:14:56.610Z,89.00
2016-08-26T09:15:56.966Z,79.00
2016-08-26T09:16:57.513Z,79.00
2016-08-26T09:17:57.809Z,79.00
2016-08-26T09:18:58.321Z,79.00
2016-08-26T09:19:59.131Z,78.00
2016-08-26T09:20:59.463Z,78.00
2016-08-26T09:21:59.952Z,78.00
2016-08-26T09:23:00.624Z,78.00
2016-08-26T09:24:00.954Z,77.00
2016-08-26T09:25:01.450Z,77.00
2016-08-26T09:26:01.951Z,77.00
2016-08-26T09:27:02.447Z,77.00
2016-08-26T09:28:03.101Z,77.00
2016-08-26T09:29:03.444Z,76.00
2016-08-26T09:30:03.941Z,76.00
2016-08-26T09:31:04.315Z,75.00
2016-08-26T09:32:04.950Z,75.00
2016-08-26T09:33:05.462Z,74.00
2016-08-26T09:34:06.090Z,74.00
2016-08-26T09:35:06.458Z,73.00
2016-08-26T09:36:07.103Z,73.00
2016-08-26T09:37:07.440Z,73.00
2016-08-26T09:38:08.096Z,73.00
2016-08-26T09:39:08.284Z,73.00
2016-08-26T09:40:09.246Z,72.00
2016-08-26T09:41:09.605Z,72.00
2016-08-26T09:42:09.941Z,72.00
2016-08-26T09:43:10.636Z,72.00
2016-08-26T09:44:11.092Z,72.00
2016-08-26T09:45:11.305Z,71.00
2016-08-26T09:46:12.064Z,71.00
2016-08-26T09:47:12.412Z,71.00
2016-08-26T09:48:12.906Z,71.00
2016-08-26T09:49:13.564Z,71.00
2016-08-26T09:50:13.916Z,70.00
2016-08-26T09:51:14.301Z,70.00
2016-08-26T09:52:15.058Z,70.00
2016-08-26T09:53:15.403Z,70.00
2016-08-26T09:54:16.048Z,69.00
2016-08-26T09:55:16.419Z,69.00
2016-08-26T09:56:16.779Z,69.00
2016-08-26T09:57:17.246Z,69.00
2016-08-26T09:58:18.067Z,68.00
2016-08-26T09:59:18.404Z,68.00
2016-08-26T10:00:18.741Z,68.00
2016-08-26T10:01:19.528Z,68.00
2016-08-26T10:02:19.892Z,68.00
2016-08-26T10:03:20.523Z,67.00
2016-08-26T10:04:20.899Z,67.00
2016-08-26T10:05:21.524Z,67.00
2016-08-26T10:06:21.759Z,66.00
2016-08-26T10:07:22.385Z,66.00
2016-08-26T10:08:22.901Z,66.00
2016-08-26T10:09:23.386Z,66.00
2016-08-26T10:10:26.429Z,66.00
2016-08-26T10:11:24.672Z,65.00
2016-08-26T10:12:24.887Z,65.00
2016-08-26T10:13:25.219Z,64.00
2016-08-26T10:14:26.044Z,64.00
2016-08-26T10:15:26.400Z,64.00
2016-08-26T10:16:26.770Z,64.00
2016-08-26T10:17:27.540Z,64.00
2016-08-26T10:18:28.025Z,64.00
2016-08-26T10:19:28.207Z,63.00
2016-08-26T10:20:29.010Z,63.00
2016-08-26T10:21:29.366Z,69.00
2016-08-26T10:22:29.705Z,62.00
2016-08-26T10:23:30.365Z,62.00
2016-08-26T10:24:31.002Z,62.00
2016-08-26T10:25:31.363Z,61.00
2016-08-26T10:26:31.870Z,61.00
2016-08-26T10:27:32.207Z,61.00
2016-08-26T10:28:33.010Z,61.00
2016-08-26T10:29:33.487Z,61.00
2016-08-26T10:30:33.856Z,61.00
2016-08-26T10:31:34.391Z,60.00
2016-08-26T10:32:35.004Z,69.00
2016-08-26T10:33:35.495Z,69.00
2016-08-26T10:34:35.853Z,59.00
2016-08-26T10:35:36.515Z,59.00
2016-08-26T10:36:36.986Z,58.00
2016-08-26T10:37:37.483Z,58.00
2016-08-26T10:38:37.846Z,57.00
2016-08-26T10:39:38.491Z,58.00
2016-08-26T10:40:38.822Z,57.00
2016-08-26T10:41:39.645Z,57.00
2016-08-26T10:42:40.133Z,57.00
2016-08-26T10:43:40.495Z,57.00
2016-08-26T10:44:41.147Z,56.00
2016-08-26T10:45:41.324Z,56.00
2016-08-26T10:46:41.824Z,55.00
2016-08-26T10:47:42.226Z,55.00
2016-08-26T10:48:42.849Z,55.00
2016-08-26T10:49:43.618Z,55.00
2016-08-26T10:50:43.833Z,54.00
2016-08-26T10:51:44.310Z,54.00
2016-08-26T10:52:45.104Z,54.00
2016-08-26T10:53:45.179Z,53.00
2016-08-26T10:54:45.967Z,53.00
2016-08-26T10:55:46.631Z,53.00
2016-08-26T10:56:46.791Z,53.00
2016-08-26T10:57:47.305Z,53.00
2016-08-26T10:58:47.848Z,52.00
2016-08-26T10:59:48.437Z,52.00
2016-08-26T11:00:48.639Z,51.00
2016-08-26T11:01:49.147Z,51.00
2016-08-26T11:02:49.809Z,51.00
2016-08-26T11:03:50.430Z,59.00
2016-08-26T11:04:50.948Z,50.00
2016-08-26T11:05:51.309Z,50.00
2016-08-26T11:06:51.944Z,59.00
2016-08-26T11:07:52.275Z,59.00
2016-08-26T11:08:52.790Z,49.00
2016-08-26T11:09:53.280Z,49.00
2016-08-26T11:10:54.066Z,49.00
2016-08-26T11:11:54.299Z,48.00
2016-08-26T11:12:54.787Z,48.00
2016-08-26T11:13:55.116Z,48.00
2016-08-26T11:14:55.764Z,48.00
2016-08-26T11:15:56.563Z,48.00
2016-08-26T11:16:56.795Z,49.00
2016-08-26T11:17:57.413Z,47.00
2016-08-26T11:18:57.620Z,47.00
2016-08-26T11:19:58.135Z,46.00
2016-08-26T11:20:59.067Z,46.00
2016-08-26T11:21:59.304Z,46.00
2016-08-26T11:22:59.923Z,46.00
2016-08-26T11:24:00.299Z,45.00
2016-08-26T11:25:00.911Z,45.00
2016-08-26T11:26:01.265Z,45.00
2016-08-26T11:27:02.212Z,45.00
2016-08-26T11:28:02.278Z,45.00
2016-08-26T11:29:02.780Z,44.00
2016-08-26T11:30:03.104Z,44.00
2016-08-26T11:31:03.913Z,44.00
2016-08-26T11:32:04.249Z,44.00
2016-08-26T11:33:04.899Z,44.00
2016-08-26T11:34:05.247Z,43.00
2016-08-26T11:35:05.900Z,43.00
2016-08-26T11:36:06.245Z,43.00
2016-08-26T11:37:06.896Z,42.00
2016-08-26T11:38:07.392Z,42.00
2016-08-26T11:39:07.890Z,42.00
2016-08-26T11:40:08.386Z,42.00
2016-08-26T11:41:09.036Z,41.00
2016-08-26T11:42:09.236Z,42.00
2016-08-26T11:43:09.896Z,42.00
2016-08-26T11:44:10.083Z,41.00
2016-08-26T11:45:10.898Z,41.00
2016-08-26T11:46:11.392Z,40.00
2016-08-26T11:47:11.748Z,40.00
2016-08-26T11:48:12.372Z,40.00
2016-08-26T11:49:12.575Z,40.00
2016-08-26T11:50:13.222Z,39.00
2016-08-26T11:51:13.885Z,39.00
2016-08-26T11:52:14.221Z,39.00
2016-08-26T11:53:14.720Z,39.00
2016-08-26T11:54:15.391Z,39.00
2016-08-26T11:55:15.903Z,38.00
2016-08-26T11:56:16.397Z,38.00
2016-08-26T11:57:16.890Z,38.00
2016-08-26T11:58:17.265Z,38.00
2016-08-26T11:59:17.744Z,38.00
2016-08-26T12:00:18.105Z,38.00
2016-08-26T12:01:18.601Z,39.00
2016-08-26T12:02:19.084Z,37.00
2016-08-26T12:03:20.013Z,37.00
2016-08-26T12:04:20.215Z,39.00
2016-08-26T12:05:20.881Z,39.00
2016-08-26T12:06:21.225Z,37.00
2016-08-26T12:07:21.569Z,37.00
2016-08-26T12:08:22.232Z,37.00
2016-08-26T12:09:22.559Z,37.00
2016-08-26T12:10:23.212Z,37.00
2016-08-26T12:11:23.728Z,37.00
2016-08-26T12:12:24.237Z,36.00
2016-08-26T12:13:25.030Z,36.00
2016-08-26T12:14:25.229Z,36.00
2016-08-26T12:15:25.713Z,36.00
2016-08-26T12:16:26.224Z,36.00
2016-08-26T12:17:26.998Z,36.00
2016-08-26T12:18:27.189Z,36.00
2016-08-26T12:19:27.695Z,36.00
2016-08-26T12:20:28.202Z,36.00
2016-08-26T12:21:28.681Z,36.00
2016-08-26T12:22:29.192Z,36.00
2016-08-26T12:23:29.538Z,36.00
2016-08-26T12:24:30.175Z,36.00
2016-08-26T12:25:30.826Z,36.00
2016-08-26T12:26:31.322Z,36.00
2016-08-26T12:27:31.573Z,36.00
2016-08-26T12:28:32.180Z,36.00
2016-08-26T12:29:32.685Z,36.00
2016-08-26T12:30:33.038Z,36.00
2016-08-26T12:31:33.677Z,36.00
2016-08-26T12:32:34.190Z,36.00
2016-08-26T12:33:34.689Z,36.00
2016-08-26T12:34:35.171Z,36.00
2016-08-26T12:35:35.838Z,39.00
2016-08-26T12:36:36.195Z,36.00
2016-08-26T12:37:36.678Z,36.00
2016-08-26T12:38:37.160Z,35.00
2016-08-26T12:39:37.955Z,35.00
2016-08-26T12:40:38.153Z,36.00
2016-08-26T12:41:38.524Z,36.00
2016-08-26T12:42:39.019Z,35.00
2016-08-26T12:43:39.526Z,35.00
2016-08-26T12:44:40.178Z,35.00
2016-08-26T12:45:40.491Z,35.00
2016-08-26T12:46:40.992Z,36.00
2016-08-26T12:47:41.782Z,35.00
2016-08-26T12:48:42.284Z,35.00
2016-08-26T12:49:42.926Z,35.00
2016-08-26T12:50:43.280Z,35.00
2016-08-26T12:51:43.631Z,35.00
2016-08-26T12:52:44.125Z,35.00
2016-08-26T12:53:44.626Z,39.00
2016-08-26T12:54:44.994Z,35.00
2016-08-26T12:55:45.498Z,35.00
2016-08-26T12:56:46.561Z,35.00
2016-08-26T12:57:46.647Z,35.00
2016-08-26T12:58:47.406Z,39.00
2016-08-26T12:59:47.752Z,34.00
2016-08-26T13:00:48.249Z,39.00
2016-08-26T13:01:48.606Z,35.00
2016-08-26T13:02:49.100Z,35.00
2016-08-26T13:03:49.771Z,35.00
2016-08-26T13:04:50.246Z,33.00
2016-08-26T13:05:50.601Z,39.00
2016-08-26T13:06:50.957Z,34.00
2016-08-26T13:07:51.634Z,34.00
2016-08-26T13:08:52.410Z,34.00
2016-08-26T13:09:52.454Z,34.00